Time;durP1;ratioP1;P1;durP2;ratioP2;P2;SDS_P1;SDS_P2;PMS_P1;PMS_P2;Temp;Humidity;BMP_temperature;BMP_pressure;BME280_temperature;BME280_humidity;BME280_pressure;Samples;Min_cycle;Max_cycle;Signal;HPM_P1;HPM_P2
2022/09/27 00:03:12;;;;;;;6.03;1.43;;;;;9.30;99378.00;;;;13014858;22;20182;-74
2022/09/27 00:08:13;;;;;;;5.97;2.10;;;;;9.30;99379.00;;;;13087118;22;20205;-74
2022/09/27 00:13:15;;;;;;;11.53;2.97;;;;;9.40;99381.00;;;;13040526;22;20191;-74
2022/09/27 00:18:16;;;;;;;6.50;2.63;;;;;9.40;99395.00;;;;13015933;22;20206;-74
2022/09/27 00:23:18;;;;;;;6.03;2.33;;;;;9.40;99398.00;;;;13061394;22;20186;-74
2022/09/27 00:28:19;;;;;;;6.87;2.57;;;;;9.30;99409.00;;;;13066281;22;20178;-74
2022/09/27 00:33:21;;;;;;;6.20;2.00;;;;;9.30;99409.00;;;;13013941;22;20278;-74
2022/09/27 00:38:22;;;;;;;11.10;2.30;;;;;9.30;99419.00;;;;13039691;22;20174;-74
2022/09/27 00:43:23;;;;;;;4.07;1.47;;;;;9.30;99428.00;;;;13012646;22;20286;-74
2022/09/27 00:48:28;;;;;;;5.67;1.30;;;;;9.30;99428.00;;;;13035673;22;20777;-74
2022/09/27 00:53:36;;;;;;;4.87;1.93;;;;;9.20;99435.00;;;;13040269;22;20221;-74
2022/09/27 00:58:46;;;;;;;7.30;1.13;;;;;9.20;99439.00;;;;13041868;22;20168;-74
2022/09/27 01:03:57;;;;;;;9.60;2.17;;;;;9.20;99457.00;;;;13043565;22;20171;-76
2022/09/27 01:08:58;;;;;;;8.90;1.10;;;;;9.20;99458.00;;;;13063867;22;20193;-75
2022/09/27 01:14:19;;;;;;;6.40;1.40;;;;;9.10;99458.00;;;;13069757;22;20386;-75
2022/09/27 01:19:40;;;;;;;5.47;1.10;;;;;9.00;99466.00;;;;13089483;22;20377;-75
2022/09/27 01:24:52;;;;;;;4.63;1.13;;;;;8.90;99466.00;;;;13043472;22;20285;-75
2022/09/27 01:30:15;;;;;;;3.70;1.10;;;;;8.80;99465.00;;;;13016963;22;20175;-75
2022/09/27 01:35:28;;;;;;;7.17;1.30;;;;;8.90;99457.00;;;;13039695;22;20689;-75
2022/09/27 01:40:55;;;;;;;2.57;1.77;;;;;9.00;99459.00;;;;13017257;22;20247;-76
2022/09/27 01:46:32;;;;;;;10.30;2.87;;;;;9.00;99467.00;;;;13022467;22;20619;-76
2022/09/27 01:51:59;;;;;;;5.17;1.63;;;;;9.00;99468.00;;;;13045097;22;20192;-75
2022/09/27 01:57:03;;;;;;;7.20;1.20;;;;;9.00;99468.00;;;;13017091;22;20217;-75
2022/09/27 02:02:11;;;;;;;9.40;2.10;;;;;9.00;99460.00;;;;13018062;22;20262;-75
2022/09/27 02:07:58;;;;;;;7.97;1.40;;;;;9.00;99451.00;;;;13117550;22;20245;-76
2022/09/27 02:13:22;;;;;;;6.17;1.70;;;;;9.00;99449.00;;;;12990319;22;20195;-76
2022/09/27 02:18:37;;;;;;;4.90;1.70;;;;;9.00;99451.00;;;;13042619;22;20163;-76
2022/09/27 02:23:43;;;;;;;7.60;1.60;;;;;9.00;99463.00;;;;13041637;22;20168;-76
2022/09/27 02:28:54;;;;;;;6.00;1.80;;;;;8.90;99458.00;;;;13038714;22;20166;-76
2022/09/27 02:34:14;;;;;;;8.10;1.23;;;;;8.90;99457.00;;;;13041407;22;20286;-75
2022/09/27 02:39:17;;;;;;;5.80;1.30;;;;;8.90;99460.00;;;;13041873;22;20194;-75
2022/09/27 02:44:20;;;;;;;4.37;1.60;;;;;8.80;99454.00;;;;13041621;22;20163;-75
2022/09/27 02:49:34;;;;;;;5.23;1.07;;;;;8.80;99437.00;;;;13041817;22;20251;-75
2022/09/27 02:55:07;;;;;;;3.93;1.20;;;;;8.80;99458.00;;;;13063576;22;20187;-75
2022/09/27 03:00:39;;;;;;;4.30;0.87;;;;;8.70;99457.00;;;;13020394;22;20183;-75
2022/09/27 03:06:13;;;;;;;6.77;1.00;;;;;8.70;99473.00;;;;13098531;22;20202;-75
2022/09/27 03:11:14;;;;;;;3.57;1.10;;;;;8.70;99477.00;;;;12990444;22;20192;-75
2022/09/27 03:16:16;;;;;;;4.93;1.03;;;;;8.70;99483.00;;;;13042398;22;20241;-75
2022/09/27 03:21:34;;;;;;;5.13;1.23;;;;;8.70;99481.00;;;;13019478;22;20175;-75
2022/09/27 03:26:36;;;;;;;4.43;1.17;;;;;8.70;99466.00;;;;13040033;22;20419;-75
2022/09/27 03:31:37;;;;;;;3.53;1.57;;;;;8.70;99471.00;;;;13040765;22;20171;-75
2022/09/27 03:37:01;;;;;;;6.43;2.20;;;;;8.70;99473.00;;;;13005089;22;20198;-75
2022/09/27 03:42:02;;;;;;;6.30;1.63;;;;;8.70;99472.00;;;;13067816;22;20172;-75
2022/09/27 03:47:05;;;;;;;6.97;1.77;;;;;8.70;99462.00;;;;13015717;22;20751;-75
2022/09/27 03:52:06;;;;;;;7.47;1.87;;;;;8.70;99474.00;;;;13039328;22;20647;-75
2022/09/27 03:57:07;;;;;;;5.57;1.50;;;;;8.60;99459.00;;;;13014946;22;20171;-75
2022/09/27 04:02:09;;;;;;;6.00;2.20;;;;;8.70;99459.00;;;;13088514;22;20615;-75
2022/09/27 04:07:30;;;;;;;3.80;1.80;;;;;8.60;99458.00;;;;13089313;22;20242;-75
2022/09/27 04:12:32;;;;;;;5.90;1.60;;;;;8.50;99446.00;;;;13040655;22;20194;-75
2022/09/27 04:17:34;;;;;;;3.37;1.43;;;;;8.40;99463.00;;;;13060704;22;20269;-75
2022/09/27 04:22:58;;;;;;;8.07;2.27;;;;;8.30;99451.00;;;;13065912;22;20171;-75
2022/09/27 04:28:00;;;;;;;7.47;2.10;;;;;8.30;99442.00;;;;13040331;22;20172;-75
2022/09/27 04:33:01;;;;;;;5.07;2.10;;;;;8.30;99453.00;;;;13064330;22;20241;-75
2022/09/27 04:38:22;;;;;;;4.77;2.30;;;;;8.40;99450.00;;;;13069579;22;20166;-76
2022/09/27 04:43:24;;;;;;;6.43;2.17;;;;;8.40;99446.00;;;;13041801;22;20163;-75
2022/09/27 04:48:27;;;;;;;4.53;2.00;;;;;8.50;99442.00;;;;13089812;22;20167;-75
2022/09/27 04:53:29;;;;;;;5.40;2.10;;;;;8.50;99436.00;;;;13042629;22;20332;-75
2022/09/27 04:58:33;;;;;;;6.53;2.47;;;;;8.60;99436.00;;;;13064801;22;20464;-75
2022/09/27 05:03:35;;;;;;;5.77;2.80;;;;;8.70;99444.00;;;;13089551;22;20156;-75
2022/09/27 05:08:44;;;;;;;7.33;3.47;;;;;8.70;99450.00;;;;13064931;22;20221;-75
2022/09/27 05:13:56;;;;;;;9.47;4.67;;;;;8.70;99444.00;;;;13041302;22;20196;-76
2022/09/27 05:18:58;;;;;;;7.63;5.37;;;;;8.70;99454.00;;;;13042540;22;20191;-76
2022/09/27 05:24:22;;;;;;;10.77;5.43;;;;;8.70;99459.00;;;;13044533;22;20171;-75
2022/09/27 05:29:23;;;;;;;15.47;6.07;;;;;8.70;99462.00;;;;13061662;22;20159;-75
2022/09/27 05:34:39;;;;;;;11.57;5.63;;;;;8.70;99462.00;;;;13089839;22;20727;-76
2022/09/27 05:39:40;;;;;;;10.97;6.40;;;;;8.70;99460.00;;;;12991015;22;20235;-75
2022/09/27 05:44:45;;;;;;;11.00;6.43;;;;;8.80;99469.00;;;;13063090;22;20163;-75
2022/09/27 05:49:48;;;;;;;8.93;6.60;;;;;8.80;99468.00;;;;13041199;22;20237;-76
2022/09/27 05:54:49;;;;;;;9.37;5.60;;;;;8.80;99467.00;;;;13015340;22;20278;-75
2022/09/27 05:59:50;;;;;;;8.70;6.03;;;;;8.80;99460.00;;;;13023703;22;20183;-76
2022/09/27 06:04:54;;;;;;;7.87;4.97;;;;;8.80;99444.00;;;;13088550;22;20159;-76
2022/09/27 06:10:19;;;;;;;9.63;5.07;;;;;8.90;99447.00;;;;13013979;22;20300;-76
2022/09/27 06:15:21;;;;;;;11.40;5.10;;;;;8.90;99434.00;;;;13012759;22;20282;-76
2022/09/27 06:20:22;;;;;;;7.43;5.43;;;;;9.00;99439.00;;;;13015223;22;20380;-76
2022/09/27 06:25:25;;;;;;;10.93;4.70;;;;;9.10;99439.00;;;;13015198;22;20511;-75
2022/09/27 06:30:43;;;;;;;9.80;5.87;;;;;9.10;99446.00;;;;13087163;22;20235;-75
2022/09/27 06:35:54;;;;;;;6.33;4.53;;;;;9.10;99434.00;;;;13040239;22;20214;-75
2022/09/27 06:41:01;;;;;;;11.80;4.77;;;;;9.10;99438.00;;;;13014957;22;20217;-75
2022/09/27 06:46:15;;;;;;;4.87;4.37;;;;;9.10;99446.00;;;;13037693;22;20224;-75
2022/09/27 06:51:49;;;;;;;7.13;4.43;;;;;9.10;99440.00;;;;13020192;22;20224;-75
2022/09/27 06:56:50;;;;;;;5.90;4.53;;;;;9.40;99443.00;;;;12990234;22;20186;-75
2022/09/27 07:01:52;;;;;;;9.80;5.40;;;;;9.70;99461.00;;;;13062578;22;20495;-75
2022/09/27 07:07:12;;;;;;;6.03;4.63;;;;;9.60;99464.00;;;;13092274;22;20163;-75
2022/09/27 07:12:21;;;;;;;9.10;4.90;;;;;9.60;99455.00;;;;12989405;22;20725;-76
2022/09/27 07:17:22;;;;;;;10.93;4.93;;;;;9.70;99459.00;;;;13015471;22;20177;-75
2022/09/27 07:22:24;;;;;;;7.07;4.77;;;;;9.70;99462.00;;;;13063117;22;20647;-75
2022/09/27 07:27:31;;;;;;;24.50;7.90;;;;;9.60;99467.00;;;;13062501;22;20587;-75
2022/09/27 07:32:35;;;;;;;11.53;5.97;;;;;9.70;99467.00;;;;13062737;22;20183;-75
2022/09/27 07:37:38;;;;;;;7.43;6.63;;;;;10.40;99469.00;;;;13041990;22;20847;-75
2022/09/27 07:42:42;;;;;;;17.97;7.80;;;;;11.70;99461.00;;;;13039445;22;20503;-75
2022/09/27 07:47:45;;;;;;;17.33;7.00;;;;;12.60;99476.00;;;;13041361;22;20174;-75
2022/09/27 07:52:55;;;;;;;24.30;7.33;;;;;12.10;99477.00;;;;13041213;22;20191;-75
2022/09/27 07:58:11;;;;;;;9.43;4.67;;;;;11.30;99484.00;;;;13062227;22;20155;-76
2022/09/27 08:03:16;;;;;;;8.33;4.83;;;;;10.80;99485.00;;;;13062722;22;20293;-76
2022/09/27 08:08:19;;;;;;;21.17;5.53;;;;;10.80;99493.00;;;;13016160;22;20192;-75
2022/09/27 08:13:23;;;;;;;10.67;4.20;;;;;10.90;99496.00;;;;13042277;22;20199;-76
2022/09/27 08:18:26;;;;;;;17.00;5.10;;;;;10.70;99493.00;;;;13041416;22;20167;-75
2022/09/27 08:23:28;;;;;;;6.53;3.53;;;;;10.50;99505.00;;;;13016630;22;20862;-75
2022/09/27 08:28:46;;;;;;;4.80;2.97;;;;;10.50;99510.00;;;;13087786;22;20238;-75
2022/09/27 08:33:52;;;;;;;4.50;3.20;;;;;10.60;99520.00;;;;13036110;22;20207;-75
2022/09/27 08:38:57;;;;;;;7.93;3.03;;;;;10.60;99513.00;;;;12991055;22;20634;-75
2022/09/27 08:44:04;;;;;;;5.23;3.37;;;;;10.50;99506.00;;;;13063801;22;20187;-75
2022/09/27 08:49:52;;;;;;;6.30;3.00;;;;;10.60;99513.00;;;;13087644;22;20491;-75
2022/09/27 08:54:56;;;;;;;7.20;2.97;;;;;10.70;99524.00;;;;13060479;22;20179;-76
2022/09/27 09:00:05;;;;;;;8.20;3.57;;;;;10.50;99517.00;;;;13036354;22;20164;-77
2022/09/27 09:05:24;;;;;;;5.43;2.40;;;;;10.20;99526.00;;;;13062509;22;20163;-76
2022/09/27 09:16:22;;;;;;;6.37;2.20;;;;;10.00;99532.00;;;;13013878;22;20676;-76
2022/09/27 09:21:49;;;;;;;3.93;2.50;;;;;10.00;99527.00;;;;13064665;22;20163;-76
2022/09/27 09:26:58;;;;;;;6.40;2.00;;;;;10.20;99523.00;;;;13042357;22;20163;-76
2022/09/27 09:32:33;;;;;;;3.40;1.83;;;;;10.30;99510.00;;;;13042367;22;20748;-76
2022/09/27 09:37:49;;;;;;;3.87;2.13;;;;;10.70;99506.00;;;;13063078;22;20164;-76
2022/09/27 09:43:03;;;;;;;2.17;1.63;;;;;11.30;99503.00;;;;13089904;22;20189;-76
2022/09/27 09:48:14;;;;;;;5.67;2.20;;;;;11.80;99492.00;;;;13017228;22;20168;-75
2022/09/27 09:53:40;;;;;;;7.67;2.27;;;;;12.50;99496.00;;;;13089814;22;20240;-75
2022/09/27 09:58:45;;;;;;;5.67;2.13;;;;;12.70;99493.00;;;;13036566;22;20250;-75
2022/09/27 10:03:49;;;;;;;4.37;1.97;;;;;13.10;99498.00;;;;13042469;22;20178;-75
2022/09/27 10:08:53;;;;;;;4.10;1.70;;;;;13.20;99497.00;;;;12991254;22;20195;-75
2022/09/27 10:14:18;;;;;;;6.23;2.07;;;;;13.60;99499.00;;;;13089461;22;20270;-76
2022/09/27 10:19:29;;;;;;;4.07;2.10;;;;;13.50;99493.00;;;;13015996;22;20174;-75
2022/09/27 10:24:53;;;;;;;4.93;2.37;;;;;13.80;99483.00;;;;12991364;22;20262;-76
2022/09/27 10:30:33;;;;;;;3.07;2.10;;;;;14.10;99489.00;;;;13019207;22;20178;-76
2022/09/27 10:35:49;;;;;;;3.27;1.90;;;;;14.10;99483.00;;;;13088580;22;20184;-76
2022/09/27 10:41:15;;;;;;;4.03;2.43;;;;;14.10;99483.00;;;;13064505;22;20238;-76
2022/09/27 10:46:27;;;;;;;12.40;2.60;;;;;14.10;99487.00;;;;13014219;22;20191;-76
2022/09/27 10:51:41;;;;;;;6.57;2.40;;;;;14.00;99473.00;;;;13066830;22;20163;-76
2022/09/27 10:56:54;;;;;;;6.20;1.93;;;;;14.00;99473.00;;;;13041078;22;20203;-76
2022/09/27 11:01:57;;;;;;;6.25;2.20;;;;;14.30;99472.00;;;;13015485;22;20179;-76
2022/09/27 11:07:18;;;;;;;6.65;1.75;;;;;16.00;99458.00;;;;13088592;22;20163;-77
2022/09/27 11:12:29;;;;;;;7.00;2.33;;;;;17.50;99469.00;;;;13087958;22;20183;-77
2022/09/27 11:17:44;;;;;;;5.45;2.35;;;;;18.40;99468.00;;;;13063130;22;20587;-77
2022/09/27 11:23:16;;;;;;;3.53;1.60;;;;;18.50;99491.00;;;;13088906;22;20495;-77
2022/09/27 11:28:30;;;;;;;1.30;0.80;;;;;15.70;99499.00;;;;13115656;22;20251;-77
2022/09/27 11:33:49;;;;;;;4.93;0.82;;;;;13.20;99497.00;;;;12989872;22;20518;-77
2022/09/27 11:38:51;;;;;;;3.67;0.77;;;;;13.00;99487.00;;;;13087697;22;20242;-76
2022/09/27 11:44:05;;;;;;;5.33;1.20;;;;;12.70;99478.00;;;;13041029;22;20179;-76
2022/09/27 11:49:36;;;;;;;4.10;1.60;;;;;12.70;99478.00;;;;13088407;22;20159;-75
2022/09/27 11:55:08;;;;;;;4.80;0.80;;;;;12.50;99476.00;;;;13012064;22;20196;-75
2022/09/27 12:00:20;;;;;;;1.60;0.80;;;;;12.70;99468.00;;;;13087957;22;20179;-76
2022/09/27 12:05:57;;;;;;;3.60;0.80;;;;;13.90;99474.00;;;;13087491;22;20447;-76
2022/09/27 12:11:15;;;;;;;2.20;1.20;;;;;13.60;99468.00;;;;13015787;22;20214;-76
2022/09/27 12:16:18;;;;;;;2.13;0.90;;;;;13.90;99462.00;;;;13014464;22;20563;-76
2022/09/27 12:21:21;;;;;;;3.30;1.10;;;;;14.40;99460.00;;;;13012509;22;20255;-77
2022/09/27 12:26:24;;;;;;;3.70;1.17;;;;;14.80;99462.00;;;;13088325;22;20175;-77
2022/09/27 12:31:32;;;;;;;4.10;1.43;;;;;14.80;99461.00;;;;13014373;22;20172;-77
2022/09/27 12:36:39;;;;;;;5.30;1.20;;;;;15.00;99448.00;;;;13036962;22;20254;-77
2022/09/27 12:41:44;;;;;;;3.88;1.00;;;;;15.40;99459.00;;;;13044188;22;20228;-77
2022/09/27 12:47:39;;;;;;;4.43;0.80;;;;;14.40;99459.00;;;;13039998;22;20163;-77
2022/09/27 12:52:58;;;;;;;5.32;1.30;;;;;14.10;99451.00;;;;13020724;22;20271;-78
2022/09/27 12:58:21;;;;;;;2.87;1.40;;;;;14.00;99432.00;;;;13022152;22;20625;-78
2022/09/27 13:03:40;;;;;;;4.27;1.50;;;;;14.10;99422.00;;;;13091177;22;20164;-77
2022/09/27 13:08:47;;;;;;;5.43;1.47;;;;;13.30;99428.00;;;;13046520;22;20198;-77
2022/09/27 13:13:59;;;;;;;4.40;1.23;;;;;12.30;99423.00;;;;13090457;22;20653;-76
2022/09/27 13:19:02;;;;;;;5.90;1.50;;;;;13.50;99424.00;;;;13038717;22;20236;-75
2022/09/27 13:24:45;;;;;;;6.33;1.17;;;;;13.60;99423.00;;;;13039562;22;20221;-75
2022/09/27 13:30:06;;;;;;;5.03;1.60;;;;;13.40;99422.00;;;;13063454;22;20534;-76
2022/09/27 13:35:23;;;;;;;3.03;1.03;;;;;13.80;99420.00;;;;13115444;22;20191;-76
2022/09/27 13:40:35;;;;;;;3.43;1.00;;;;;14.60;99409.00;;;;13065164;22;20160;-76
2022/09/27 13:46:07;;;;;;;5.37;1.80;;;;;14.50;99406.00;;;;13022316;22;20283;-77
2022/09/27 13:51:38;;;;;;;3.87;1.10;;;;;13.70;99410.00;;;;13015058;22;20176;-77
2022/09/27 13:56:47;;;;;;;2.93;0.90;;;;;13.40;99406.00;;;;13062665;22;20187;-77
2022/09/27 14:01:55;;;;;;;2.40;1.10;;;;;13.70;99406.00;;;;13017766;22;20254;-77
2022/09/27 14:07:04;;;;;;;1.63;0.80;;;;;14.30;99397.00;;;;13042095;22;20167;-77
2022/09/27 14:12:14;;;;;;;4.73;1.37;;;;;14.40;99397.00;;;;12995305;22;20184;-77
2022/09/27 14:17:16;;;;;;;5.97;1.57;;;;;16.10;99402.00;;;;13094716;22;20244;-78
2022/09/27 14:22:20;;;;;;;5.00;1.10;;;;;15.40;99409.00;;;;13048137;22;20179;-78
2022/09/27 14:27:42;;;;;;;4.88;1.00;;;;;15.90;99397.00;;;;13078255;22;20182;-77
2022/09/27 14:32:54;;;;;;;2.80;1.10;;;;;16.00;99385.00;;;;13097279;22;20823;-78
2022/09/27 14:38:15;;;;;;;5.60;1.52;;;;;15.20;99399.00;;;;13074785;22;20246;-77
2022/09/27 14:43:43;;;;;;;5.57;2.28;;;;;14.60;99395.00;;;;13076736;22;20304;-77
2022/09/27 14:48:44;;;;;;;7.85;1.63;;;;;13.90;99390.00;;;;13075571;22;20180;-78
2022/09/27 14:53:47;;;;;;;9.80;1.83;;;;;13.20;99373.00;;;;13025164;22;20187;-78
2022/09/27 14:59:00;;;;;;;6.83;2.07;;;;;12.90;99369.00;;;;13021124;22;20228;-78
2022/09/27 15:04:04;;;;;;;7.47;1.63;;;;;12.30;99374.00;;;;13066816;22;21015;-76
2022/09/27 15:09:08;;;;;;;6.93;2.23;;;;;11.50;99393.00;;;;13063195;22;20229;-77
2022/09/27 15:14:16;;;;;;;4.77;1.80;;;;;10.90;99392.00;;;;13037194;22;20446;-76
2022/09/27 15:19:25;;;;;;;3.93;1.40;;;;;11.00;99384.00;;;;13037157;22;20566;-76
2022/09/27 15:25:03;;;;;;;5.87;1.60;;;;;11.10;99379.00;;;;13016760;22;20256;-76
2022/09/27 15:30:05;;;;;;;3.37;1.73;;;;;11.10;99356.00;;;;12968424;22;20171;-76
2022/09/27 15:35:07;;;;;;;3.90;1.20;;;;;11.20;99342.00;;;;13088576;22;20191;-75
2022/09/27 15:40:15;;;;;;;5.53;1.57;;;;;11.80;99345.00;;;;13041656;22;20167;-75
2022/09/27 15:45:29;;;;;;;1.90;0.80;;;;;11.80;99327.00;;;;13041215;22;20637;-75
2022/09/27 15:50:33;;;;;;;4.03;0.80;;;;;11.40;99332.00;;;;13016075;22;20175;-75
2022/09/27 15:55:39;;;;;;;1.77;1.10;;;;;11.10;99326.00;;;;13014110;22;20204;-75
2022/09/27 16:00:54;;;;;;;5.57;1.50;;;;;11.40;99312.00;;;;13061921;22;20762;-75
2022/09/27 16:05:57;;;;;;;4.07;1.47;;;;;11.60;99295.00;;;;13016158;22;20171;-75
2022/09/27 16:10:59;;;;;;;2.90;1.27;;;;;11.60;99289.00;;;;13040512;22;20211;-75
2022/09/27 16:16:01;;;;;;;3.93;1.30;;;;;11.50;99289.00;;;;13062963;22;20190;-76
2022/09/27 16:21:03;;;;;;;5.57;1.93;;;;;11.40;99286.00;;;;13034558;22;20369;-75
2022/09/27 16:26:04;;;;;;;5.93;1.60;;;;;11.20;99291.00;;;;13088853;22;20221;-76
2022/09/27 16:31:06;;;;;;;4.83;1.90;;;;;11.20;99287.00;;;;13047069;22;20177;-76
2022/09/27 16:36:15;;;;;;;9.20;2.50;;;;;11.20;99285.00;;;;13048066;22;20205;-76
2022/09/27 16:41:17;;;;;;;5.17;2.20;;;;;11.10;99288.00;;;;13047238;22;20175;-76
2022/09/27 16:46:19;;;;;;;4.23;2.20;;;;;10.90;99277.00;;;;13046543;22;20186;-76
2022/09/27 16:56:40;;;;;;;6.27;3.20;;;;;10.50;99268.00;;;;13046907;22;20187;-76
2022/09/27 17:01:42;;;;;;;10.80;3.20;;;;;10.40;99265.00;;;;13047100;22;20567;-76
2022/09/27 17:06:43;;;;;;;6.23;2.17;;;;;10.40;99257.00;;;;13042787;22;20163;-76
2022/09/27 17:11:44;;;;;;;4.33;1.77;;;;;10.40;99255.00;;;;13022328;22;20248;-76
2022/09/27 17:16:46;;;;;;;6.50;2.77;;;;;10.40;99259.00;;;;13069189;22;20186;-76
2022/09/27 17:21:47;;;;;;;5.43;2.37;;;;;10.40;99258.00;;;;13046341;22;20503;-76
2022/09/27 17:26:48;;;;;;;7.83;2.80;;;;;10.40;99265.00;;;;13046444;22;20179;-76
2022/09/27 17:31:49;;;;;;;9.67;3.40;;;;;10.40;99281.00;;;;13046686;22;20637;-77
2022/09/27 17:36:51;;;;;;;7.63;1.87;;;;;10.20;99257.00;;;;13093479;22;20188;-75
2022/09/27 17:41:52;;;;;;;4.57;2.50;;;;;9.90;99285.00;;;;12989746;22;20172;-76
2022/09/27 17:52:13;;;;;;;2.53;1.20;;;;;8.80;99282.00;;;;13089452;22;20170;-75
2022/09/27 17:57:15;;;;;;;0.97;0.80;;;;;8.60;99276.00;;;;13064858;22;20172;-75
2022/09/27 18:02:16;;;;;;;3.33;1.60;;;;;8.60;99289.00;;;;13062868;22;20171;-76
2022/09/27 18:07:18;;;;;;;3.27;1.60;;;;;8.70;99295.00;;;;13063082;22;20209;-75
2022/09/27 18:12:20;;;;;;;3.50;1.90;;;;;8.80;99291.00;;;;13042312;22;20191;-76
2022/09/27 18:17:21;;;;;;;3.53;1.53;;;;;8.80;99296.00;;;;13064198;22;20250;-75
2022/09/27 18:22:28;;;;;;;4.93;1.67;;;;;8.80;99291.00;;;;13089963;22;20164;-76
2022/09/27 18:27:29;;;;;;;2.33;1.13;;;;;8.80;99280.00;;;;13041544;22;20445;-75
2022/09/27 18:32:30;;;;;;;4.43;1.37;;;;;8.80;99242.00;;;;13063317;22;20710;-75
2022/09/27 18:37:31;;;;;;;1.53;1.30;;;;;8.80;99228.00;;;;13014729;22;20183;-75
2022/09/27 18:42:33;;;;;;;5.20;1.67;;;;;8.80;99218.00;;;;13038548;22;20163;-75
2022/09/27 18:47:34;;;;;;;3.30;2.23;;;;;8.80;99202.00;;;;13066728;22;20172;-75
2022/09/27 18:52:35;;;;;;;2.07;1.50;;;;;8.70;99203.00;;;;13037764;22;20191;-75
2022/09/27 18:57:36;;;;;;;3.80;1.70;;;;;8.70;99204.00;;;;13089335;22;20160;-74
2022/09/27 19:02:38;;;;;;;4.00;2.03;;;;;8.70;99202.00;;;;13087148;22;20174;-75
2022/09/27 19:07:40;;;;;;;3.23;1.80;;;;;8.70;99211.00;;;;13043028;22;20175;-75
2022/09/27 19:12:41;;;;;;;3.37;1.73;;;;;8.80;99222.00;;;;13061315;22;20183;-75
2022/09/27 19:17:42;;;;;;;3.80;2.20;;;;;8.70;99217.00;;;;13016035;22;20172;-75
2022/09/27 19:22:44;;;;;;;2.87;2.23;;;;;8.70;99254.00;;;;13063620;22;20171;-75
2022/09/27 19:27:45;;;;;;;5.03;2.70;;;;;8.80;99276.00;;;;13015321;22;20163;-75
2022/09/27 19:32:47;;;;;;;4.10;3.03;;;;;8.80;99283.00;;;;13063678;22;20670;-75
2022/09/27 19:37:48;;;;;;;4.03;3.13;;;;;8.80;99276.00;;;;13013592;22;20524;-74
2022/09/27 19:42:51;;;;;;;5.23;2.70;;;;;8.80;99278.00;;;;13066846;22;20179;-74
2022/09/27 19:47:53;;;;;;;5.90;3.50;;;;;8.70;99311.00;;;;13062175;22;20595;-75
2022/09/27 19:52:54;;;;;;;7.60;3.70;;;;;8.70;99291.00;;;;13087703;22;20179;-75
2022/09/27 19:57:56;;;;;;;5.00;2.87;;;;;8.70;99265.00;;;;13088726;22;20159;-76
2022/09/27 20:02:57;;;;;;;4.50;2.73;;;;;8.70;99257.00;;;;13040320;22;20682;-75
2022/09/27 20:07:58;;;;;;;3.03;1.70;;;;;8.60;99249.00;;;;12990770;22;20175;-75
2022/09/27 20:12:59;;;;;;;3.20;1.50;;;;;8.50;99235.00;;;;13066163;22;20402;-75
2022/09/27 20:18:00;;;;;;;4.10;1.80;;;;;8.40;99234.00;;;;13015730;22;20313;-75
2022/09/27 20:23:06;;;;;;;2.83;1.77;;;;;8.40;99221.00;;;;13037381;22;20198;-75
2022/09/27 20:28:07;;;;;;;2.70;1.60;;;;;8.40;99227.00;;;;13015823;22;20183;-75
2022/09/27 20:38:28;;;;;;;8.80;2.70;;;;;8.30;99207.00;;;;13012380;22;20175;-74
2022/09/27 20:43:30;;;;;;;4.17;2.30;;;;;8.20;99206.00;;;;13040445;22;20242;-74
2022/09/27 20:48:32;;;;;;;5.60;2.77;;;;;8.10;99202.00;;;;13062002;22;20225;-75
2022/09/27 20:53:34;;;;;;;3.60;2.40;;;;;8.10;99204.00;;;;13061827;22;20787;-74
2022/09/27 20:58:35;;;;;;;4.30;2.67;;;;;8.10;99204.00;;;;13032582;22;20229;-74
2022/09/27 21:03:36;;;;;;;5.10;3.00;;;;;8.20;99198.00;;;;12985166;22;20683;-74
2022/09/27 21:08:38;;;;;;;5.83;3.10;;;;;8.30;99194.00;;;;13061807;22;20183;-74
2022/09/27 21:13:41;;;;;;;5.87;3.73;;;;;8.30;99190.00;;;;13086830;22;20769;-74
2022/09/27 21:18:43;;;;;;;5.43;3.40;;;;;8.40;99198.00;;;;13063929;22;20221;-74
2022/09/27 21:23:45;;;;;;;7.87;3.47;;;;;8.50;99195.00;;;;13037506;22;20167;-74
2022/09/27 21:28:54;;;;;;;9.80;4.20;;;;;8.50;99199.00;;;;13069550;22;20743;-74
2022/09/27 21:33:58;;;;;;;8.83;4.80;;;;;8.60;99199.00;;;;13090273;22;20196;-75
2022/09/27 21:39:00;;;;;;;7.77;5.37;;;;;8.60;99193.00;;;;13016965;22;20171;-75
2022/09/27 21:44:03;;;;;;;12.13;5.50;;;;;8.70;99197.00;;;;13039341;22;20209;-76
2022/09/27 21:49:04;;;;;;;11.00;6.87;;;;;8.70;99200.00;;;;13064047;22;20171;-76
2022/09/27 21:54:08;;;;;;;8.70;6.07;;;;;8.70;99207.00;;;;13063408;22;20187;-76
2022/09/27 21:59:13;;;;;;;13.63;6.73;;;;;8.70;99209.00;;;;13061245;22;20171;-76
2022/09/27 22:04:15;;;;;;;10.83;7.73;;;;;8.70;99189.00;;;;13062885;22;20156;-76
2022/09/27 22:09:16;;;;;;;9.97;7.37;;;;;8.70;99166.00;;;;12992559;22;20191;-75
2022/09/27 22:14:18;;;;;;;9.30;8.23;;;;;8.70;99163.00;;;;13042012;22;20190;-75
2022/09/27 22:19:20;;;;;;;12.03;9.47;;;;;8.70;99183.00;;;;13041412;22;20174;-75
2022/09/27 22:24:21;;;;;;;13.13;10.00;;;;;8.80;99170.00;;;;13088192;22;20209;-75
2022/09/27 22:29:23;;;;;;;14.07;10.00;;;;;8.80;99171.00;;;;13039243;22;20249;-75
2022/09/27 22:34:27;;;;;;;12.73;9.63;;;;;8.90;99170.00;;;;13088969;22;20232;-75
2022/09/27 22:39:28;;;;;;;14.47;8.67;;;;;8.90;99163.00;;;;13041585;22;20174;-75
2022/09/27 22:44:31;;;;;;;13.20;7.73;;;;;9.00;99171.00;;;;13015796;22;20237;-75
2022/09/27 22:49:32;;;;;;;11.80;7.53;;;;;9.00;99162.00;;;;13088939;22;20166;-75
2022/09/27 22:54:35;;;;;;;12.53;7.40;;;;;9.00;99157.00;;;;13016867;22;20195;-75
2022/09/27 22:59:37;;;;;;;11.87;6.83;;;;;9.00;99149.00;;;;13013799;22;20199;-75
2022/09/27 23:04:38;;;;;;;12.70;7.53;;;;;8.90;99135.00;;;;12990814;22;20167;-75
2022/09/27 23:09:39;;;;;;;8.20;6.40;;;;;9.00;99146.00;;;;13087984;22;20179;-75
2022/09/27 23:14:40;;;;;;;12.33;8.47;;;;;9.00;99135.00;;;;13089749;22;20248;-75
2022/09/27 23:19:43;;;;;;;11.27;7.87;;;;;9.00;99137.00;;;;12990817;22;20182;-75
2022/09/27 23:24:44;;;;;;;11.30;7.60;;;;;9.00;99133.00;;;;13041352;22;20203;-75
2022/09/27 23:29:46;;;;;;;11.60;6.70;;;;;8.90;99132.00;;;;13086627;22;20171;-75
2022/09/27 23:34:47;;;;;;;10.30;6.60;;;;;8.80;99126.00;;;;13073960;22;20183;-75
2022/09/27 23:39:48;;;;;;;11.50;5.93;;;;;8.80;99125.00;;;;13087839;22;20217;-75
2022/09/27 23:44:51;;;;;;;8.93;6.57;;;;;8.70;99131.00;;;;13062396;22;20213;-75
2022/09/27 23:49:52;;;;;;;13.97;7.30;;;;;8.70;99130.00;;;;12990268;22;20230;-75
2022/09/27 23:54:54;;;;;;;8.10;6.23;;;;;8.70;99143.00;;;;13060864;22;20190;-75
2022/09/27 23:59:55;;;;;;;11.20;6.80;;;;;8.70;99149.00;;;;13015308;22;20167;-75
